In Rescue
 
Open Full Screen Window  High Contrast Mode
Wind Gusting 00 knots
08
September 19, 2019 5:20 PM EDT
Weather Information
Wind Direction
  210 °
Wind Speed
  08 kt (9 mph)
Wind Gust
  00 kt (0 mph)
Altimeter
30.09 in
Visibility
10 SM
Temperature
25° C
77° F
Dewpoint
16° C
61° F
Humidity
57%
1hr Rain Fall
00.00 in.
24hr Rain Fall
00.00 in.
Sky Condition
Clear
VFR

METAR KRQB 192120Z AUTO 21008KT 10SM CLR 25/16 A3009 RMK AO2 T02470156

FAA Disclaimer: The data displayed is for advisory purposes only and is not to be used for flight planning or operations.